Time;durP1;ratioP1;P1;durP2;ratioP2;P2;SDS_P1;SDS_P2;PMS_P1;PMS_P2;Temp;Humidity;BMP_temperature;BMP_pressure;BME280_temperature;BME280_humidity;BME280_pressure;Samples;Min_cycle;Max_cycle;Signal;HPM_P1;HPM_P2
2021/05/23 00:00:56;;;;;;;3.58;1.60;;;;;;;;;;3532764;40;20074;-69
2021/05/23 00:03:22;;;;;;;2.95;2.03;;;;;;;;;;3534610;40;20023;-68
2021/05/23 00:05:48;;;;;;;3.00;1.92;;;;;;;;;;3535840;40;20039;-68
2021/05/23 00:08:18;;;;;;;6.30;2.67;;;10.70;99.90;;;;;;3537928;40;20435;-69
2021/05/23 00:10:59;;;;;;;6.15;1.83;;;10.60;99.90;;;;;;3539693;40;20378;-69
2021/05/23 00:13:28;;;;;;;2.78;1.77;;;10.70;99.90;;;;;;3542173;40;20107;-68
2021/05/23 00:16:04;;;;;;;3.53;1.90;;;10.50;99.90;;;;;;3535452;40;20075;-69
2021/05/23 00:18:32;;;;;;;4.13;2.30;;;10.70;99.90;;;;;;3536294;40;20646;-68
2021/05/23 00:20:58;;;;;;;5.93;1.92;;;10.70;99.90;;;;;;3539094;40;20051;-69
2021/05/23 00:23:24;;;;;;;3.90;2.00;;;10.70;99.90;;;;;;3536460;40;20049;-69
2021/05/23 00:25:51;;;;;;;3.15;1.80;;;10.70;99.90;;;;;;3532921;40;20089;-67
2021/05/23 00:28:18;;;;;;;3.03;1.95;;;10.70;99.90;;;;;;3535328;40;20440;-69
2021/05/23 00:30:43;;;;;;;2.10;1.90;;;10.70;99.90;;;;;;3535356;40;20043;-68
2021/05/23 00:33:10;;;;;;;7.50;1.95;;;10.70;99.90;;;;;;3538263;40;20042;-68
2021/05/23 00:35:37;;;;;;;3.50;2.58;;;10.70;99.90;;;;;;3538278;40;20034;-69
2021/05/23 00:38:04;;;;;;;4.65;2.15;;;10.70;99.90;;;;;;3541592;40;20041;-68
2021/05/23 00:40:30;;;;;;;2.72;1.83;;;10.70;99.90;;;;;;3539074;40;20042;-69
2021/05/23 00:42:56;;;;;;;2.70;2.00;;;10.70;99.90;;;;;;3537874;40;20711;-69
2021/05/23 00:45:22;;;;;;;4.68;2.05;;;10.70;99.90;;;;;;3536273;40;20049;-68
2021/05/23 00:47:48;;;;;;;3.95;1.80;;;10.80;99.90;;;;;;3533703;40;20050;-68
2021/05/23 00:50:20;;;;;;;3.72;2.30;;;11.10;99.90;;;;;;3531031;40;20042;-68
2021/05/23 00:52:46;;;;;;;3.38;2.00;;;10.80;99.90;;;;;;3539344;40;20045;-69
2021/05/23 00:55:12;;;;;;;3.53;2.28;;;;;;;;;;3536473;40;20055;-68
2021/05/23 00:57:39;;;;;;;4.28;2.35;;;;;;;;;;3538641;40;20027;-68
2021/05/23 01:00:09;;;;;;;3.75;2.35;;;10.60;99.90;;;;;;3540031;40;20423;-68
2021/05/23 01:02:45;;;;;;;3.70;2.38;;;;;;;;;;3542156;40;20065;-69
2021/05/23 01:05:15;;;;;;;2.42;2.17;;;10.80;99.90;;;;;;3541011;40;20075;-68
2021/05/23 01:07:42;;;;;;;3.03;2.72;;;10.50;99.90;;;;;;3538757;40;20043;-69
2021/05/23 01:10:15;;;;;;;3.58;2.67;;;10.40;99.90;;;;;;3537445;40;20046;-68
2021/05/23 01:12:53;;;;;;;3.95;2.70;;;10.10;99.90;;;;;;3533724;40;20043;-69
2021/05/23 01:15:30;;;;;;;3.78;2.40;;;10.20;99.90;;;;;;3530691;40;20086;-69
2021/05/23 01:17:59;;;;;;;6.80;3.50;;;9.50;99.90;;;;;;3533221;40;20117;-69
2021/05/23 01:20:27;;;;;;;4.47;2.60;;;;;;;;;;3534929;40;20120;-68
2021/05/23 01:23:01;;;;;;;5.15;2.40;;;10.30;99.90;;;;;;3537546;40;20022;-69
2021/05/23 01:25:29;;;;;;;3.95;2.50;;;10.30;99.90;;;;;;3534576;40;20804;-69
2021/05/23 01:27:56;;;;;;;4.00;2.58;;;10.20;99.90;;;;;;3532220;40;20035;-69
2021/05/23 01:30:34;;;;;;;4.20;2.35;;;10.20;99.90;;;;;;3533425;40;20082;-69
2021/05/23 01:33:03;;;;;;;2.80;2.28;;;10.20;99.90;;;;;;3535363;40;20034;-68
2021/05/23 01:35:35;;;;;;;3.72;2.35;;;10.10;99.90;;;;;;3537569;40;20312;-69
2021/05/23 01:38:02;;;;;;;2.97;2.35;;;10.20;99.90;;;;;;3534167;40;20595;-69
2021/05/23 01:40:33;;;;;;;3.35;2.10;;;9.90;99.90;;;;;;3532324;40;20047;-69
2021/05/23 01:42:59;;;;;;;3.92;2.38;;;9.50;99.90;;;;;;3539739;40;20049;-69
2021/05/23 01:45:26;;;;;;;3.78;2.70;;;9.60;99.90;;;;;;3537665;40;20038;-69
2021/05/23 01:47:52;;;;;;;4.63;2.90;;;9.80;99.90;;;;;;3537618;40;20042;-69
2021/05/23 01:50:18;;;;;;;4.05;2.70;;;9.90;99.90;;;;;;3533951;40;20049;-69
2021/05/23 01:52:58;;;;;;;3.13;2.38;;;9.70;99.90;;;;;;3532909;40;20648;-69
2021/05/23 01:55:25;;;;;;;3.75;2.53;;;9.30;99.90;;;;;;3533850;40;20054;-69
2021/05/23 01:57:51;;;;;;;3.53;2.50;;;9.30;99.90;;;;;;3534211;40;20045;-69
2021/05/23 02:00:24;;;;;;;4.00;2.67;;;10.20;99.90;;;;;;3537046;40;20320;-69
2021/05/23 02:02:50;;;;;;;3.17;2.38;;;9.70;99.90;;;;;;3539282;40;20057;-69
2021/05/23 02:05:16;;;;;;;4.10;2.30;;;9.60;99.90;;;;;;3541028;40;20043;-69
2021/05/23 02:07:42;;;;;;;3.90;2.53;;;9.60;99.90;;;;;;3535612;40;20409;-69
2021/05/23 02:10:11;;;;;;;3.58;2.40;;;9.60;99.90;;;;;;3538254;40;20070;-69
2021/05/23 02:12:37;;;;;;;6.50;3.33;;;9.70;99.90;;;;;;3536881;40;20046;-69
2021/05/23 02:15:05;;;;;;;3.22;2.53;;;9.50;99.90;;;;;;3538668;40;20042;-69
2021/05/23 02:17:35;;;;;;;3.30;2.80;;;9.40;99.90;;;;;;3535521;40;20070;-69
2021/05/23 02:20:01;;;;;;;3.53;2.80;;;9.40;99.90;;;;;;3539860;40;20108;-69
2021/05/23 02:22:26;;;;;;;3.22;2.65;;;9.40;99.90;;;;;;3539437;40;20035;-69
2021/05/23 02:24:52;;;;;;;2.95;2.65;;;9.30;99.90;;;;;;3537539;40;20035;-69
2021/05/23 02:27:17;;;;;;;3.53;2.60;;;9.30;99.90;;;;;;3538197;40;20039;-69
2021/05/23 02:29:43;;;;;;;4.32;3.00;;;9.20;99.90;;;;;;3537434;40;20044;-69
2021/05/23 02:32:10;;;;;;;4.40;2.80;;;9.10;99.90;;;;;;3536678;40;20045;-69
2021/05/23 02:34:47;;;;;;;4.75;2.75;;;9.20;99.90;;;;;;3537869;40;20073;-69
2021/05/23 02:37:13;;;;;;;7.40;2.65;;;9.20;99.90;;;;;;3540812;40;20039;-69
2021/05/23 02:39:38;;;;;;;2.58;2.30;;;9.10;99.90;;;;;;3542051;40;20124;-69
2021/05/23 02:42:04;;;;;;;4.35;2.65;;;9.10;99.90;;;;;;3538144;40;20046;-69
2021/05/23 02:44:30;;;;;;;5.18;2.90;;;9.10;99.90;;;;;;3537127;40;20129;-69
2021/05/23 02:46:55;;;;;;;4.32;2.55;;;9.10;99.90;;;;;;3537009;40;20031;-69
2021/05/23 02:49:21;;;;;;;4.90;2.35;;;9.00;99.90;;;;;;3540422;40;20308;-69
2021/05/23 02:51:47;;;;;;;4.28;2.53;;;9.10;99.90;;;;;;3537907;40;20417;-68
2021/05/23 02:54:13;;;;;;;3.60;2.30;;;9.20;99.90;;;;;;3540150;40;20031;-69
2021/05/23 02:56:38;;;;;;;2.90;2.40;;;9.30;99.90;;;;;;3533750;40;20061;-68
2021/05/23 02:59:04;;;;;;;8.85;2.30;;;9.30;99.90;;;;;;3537801;40;20117;-69
2021/05/23 03:01:30;;;;;;;3.28;2.20;;;9.40;99.90;;;;;;3538003;40;20034;-69
2021/05/23 03:03:55;;;;;;;5.30;3.03;;;9.40;99.90;;;;;;3540534;40;20121;-69
2021/05/23 03:06:21;;;;;;;3.50;2.30;;;9.40;99.90;;;;;;3540320;40;20057;-69
2021/05/23 03:08:47;;;;;;;4.60;2.15;;;9.50;99.90;;;;;;3540166;40;20034;-69
2021/05/23 03:11:13;;;;;;;5.85;2.17;;;9.40;99.90;;;;;;3536936;40;20038;-69
2021/05/23 03:13:39;;;;;;;4.13;2.30;;;9.40;99.90;;;;;;3539601;40;20343;-68
2021/05/23 03:16:05;;;;;;;4.43;2.08;;;9.40;99.90;;;;;;3535728;40;20039;-69
2021/05/23 03:18:31;;;;;;;4.90;2.47;;;;;;;;;;3538681;40;20056;-68
2021/05/23 03:20:57;;;;;;;3.13;2.20;;;9.40;99.90;;;;;;3542001;40;20075;-69
2021/05/23 03:23:22;;;;;;;3.17;2.47;;;9.40;99.90;;;;;;3538847;40;20038;-69
2021/05/23 03:25:48;;;;;;;6.78;2.45;;;9.30;99.90;;;;;;3538942;40;20043;-69
2021/05/23 03:28:15;;;;;;;5.10;2.50;;;9.20;99.90;;;;;;3538209;40;20132;-68
2021/05/23 03:30:42;;;;;;;5.88;2.47;;;9.30;99.90;;;;;;3539083;40;20042;-69
2021/05/23 03:33:09;;;;;;;4.97;2.60;;;9.20;99.90;;;;;;3539647;40;20027;-69
2021/05/23 03:35:35;;;;;;;4.10;2.33;;;9.10;99.90;;;;;;3536275;40;20136;-68
2021/05/23 03:38:02;;;;;;;4.22;2.20;;;9.10;99.90;;;;;;3536551;40;20494;-68
2021/05/23 03:40:30;;;;;;;6.72;2.28;;;;;;;;;;3539494;40;20801;-69
2021/05/23 03:42:56;;;;;;;3.65;2.28;;;;;;;;;;3535052;40;20045;-69
2021/05/23 03:45:23;;;;;;;3.42;2.17;;;9.00;99.90;;;;;;3532550;40;20047;-69
2021/05/23 03:47:49;;;;;;;2.33;1.65;;;;;;;;;;3540271;40;20042;-69
2021/05/23 03:50:19;;;;;;;3.83;1.98;;;8.80;99.90;;;;;;3538926;40;20955;-69
2021/05/23 03:52:46;;;;;;;3.45;2.08;;;8.50;99.90;;;;;;3538369;40;20033;-69
2021/05/23 03:55:12;;;;;;;3.63;2.30;;;8.50;99.90;;;;;;3537490;40;20043;-69
2021/05/23 03:57:38;;;;;;;3.42;2.67;;;8.90;99.90;;;;;;3537246;40;20034;-69
2021/05/23 04:00:06;;;;;;;3.20;2.05;;;8.90;99.90;;;;;;3532884;40;20269;-69
2021/05/23 04:02:38;;;;;;;4.28;2.60;;;;;;;;;;3536686;40;20185;-69
2021/05/23 04:05:05;;;;;;;6.78;2.92;;;;;;;;;;3537008;40;20053;-69
2021/05/23 04:07:30;;;;;;;4.20;2.35;;;8.70;99.90;;;;;;3539414;40;20038;-69
2021/05/23 04:09:57;;;;;;;5.10;2.30;;;;;;;;;;3536521;40;20138;-69
2021/05/23 04:12:34;;;;;;;6.72;2.47;;;9.10;99.90;;;;;;3537799;40;20136;-69
2021/05/23 04:15:00;;;;;;;3.83;2.17;;;9.10;99.90;;;;;;3535281;40;20925;-69
2021/05/23 04:17:28;;;;;;;4.00;2.28;;;9.10;99.90;;;;;;3537202;40;20054;-69
2021/05/23 04:19:54;;;;;;;3.53;2.13;;;9.10;99.90;;;;;;3537684;40;20042;-69
2021/05/23 04:22:20;;;;;;;3.97;2.25;;;9.30;99.90;;;;;;3535747;40;20035;-69
2021/05/23 04:24:46;;;;;;;5.22;2.20;;;9.30;99.90;;;;;;3535360;40;20313;-69
2021/05/23 04:27:11;;;;;;;3.17;2.22;;;9.30;99.90;;;;;;3537418;40;20035;-69
2021/05/23 04:29:37;;;;;;;4.55;1.80;;;9.30;99.90;;;;;;3536639;40;20034;-68
2021/05/23 04:32:05;;;;;;;5.47;2.53;;;9.50;99.90;;;;;;3535993;40;20042;-68
2021/05/23 04:34:33;;;;;;;2.67;1.80;;;9.60;99.90;;;;;;3533945;40;20047;-69
2021/05/23 04:36:59;;;;;;;4.00;2.10;;;9.70;99.90;;;;;;3540429;40;20746;-69
2021/05/23 04:39:24;;;;;;;4.88;1.75;;;9.90;99.90;;;;;;3537932;40;20038;-69
2021/05/23 04:41:50;;;;;;;3.40;1.70;;;10.10;99.90;;;;;;3538583;40;20034;-69
2021/05/23 04:44:16;;;;;;;2.95;1.75;;;10.20;99.90;;;;;;3538735;40;20053;-69
2021/05/23 04:46:41;;;;;;;2.33;1.60;;;10.30;99.90;;;;;;3537536;40;20235;-69
2021/05/23 04:49:07;;;;;;;2.35;1.52;;;10.50;99.90;;;;;;3539922;40;20043;-69
2021/05/23 04:51:33;;;;;;;3.50;1.42;;;10.60;99.90;;;;;;3537990;40;20591;-69
2021/05/23 04:53:58;;;;;;;3.15;1.30;;;10.60;99.90;;;;;;3537684;40;20729;-68
2021/05/23 04:56:24;;;;;;;2.30;1.30;;;10.80;99.90;;;;;;3538182;40;20050;-69
2021/05/23 04:58:50;;;;;;;2.60;1.23;;;11.00;99.90;;;;;;3539167;40;20042;-69
2021/05/23 05:01:15;;;;;;;1.67;1.10;;;11.10;99.90;;;;;;3540992;40;20057;-69
2021/05/23 05:03:41;;;;;;;3.20;1.20;;;11.20;99.90;;;;;;3539855;40;20046;-69
2021/05/23 05:06:07;;;;;;;3.33;1.30;;;11.20;99.90;;;;;;3535409;40;20744;-69
2021/05/23 05:08:33;;;;;;;5.18;1.80;;;11.30;99.90;;;;;;3537182;40;20177;-68
2021/05/23 05:10:59;;;;;;;3.65;1.38;;;11.40;99.90;;;;;;3536851;40;20038;-68
2021/05/23 05:13:24;;;;;;;3.10;1.35;;;11.40;99.90;;;;;;3537568;40;20069;-68
2021/05/23 05:15:50;;;;;;;4.40;1.63;;;11.40;99.90;;;;;;3538570;40;20159;-68
2021/05/23 05:18:16;;;;;;;2.42;1.20;;;11.40;99.90;;;;;;3538419;40;20046;-68
2021/05/23 05:20:41;;;;;;;1.65;0.95;;;11.40;99.90;;;;;;3536738;40;20188;-68
2021/05/23 05:23:07;;;;;;;2.08;1.20;;;11.40;99.90;;;;;;3536979;40;20067;-69
2021/05/23 05:25:33;;;;;;;3.25;1.52;;;11.50;99.90;;;;;;3537771;40;20038;-69
2021/05/23 05:27:59;;;;;;;3.53;1.40;;;11.50;99.90;;;;;;3541184;40;20054;-69
2021/05/23 05:30:25;;;;;;;1.73;1.08;;;11.40;99.90;;;;;;3539056;40;20035;-69
2021/05/23 05:32:51;;;;;;;3.05;1.02;;;11.30;99.90;;;;;;3539893;40;20037;-69
2021/05/23 05:35:17;;;;;;;1.95;1.05;;;11.40;99.90;;;;;;3536962;40;20027;-69
2021/05/23 05:37:42;;;;;;;2.03;1.15;;;11.50;99.90;;;;;;3534515;40;20041;-68
2021/05/23 05:40:09;;;;;;;4.78;1.30;;;11.50;99.90;;;;;;3536236;40;20038;-69
2021/05/23 05:42:34;;;;;;;3.10;0.88;;;11.60;99.90;;;;;;3538629;40;20038;-69
2021/05/23 05:45:00;;;;;;;2.05;0.90;;;11.70;99.90;;;;;;3537178;40;20035;-69
2021/05/23 05:47:26;;;;;;;1.90;1.00;;;11.60;99.90;;;;;;3537457;40;20042;-69
2021/05/23 05:49:53;;;;;;;3.60;1.33;;;11.60;99.90;;;;;;3540095;40;20207;-69
2021/05/23 05:52:19;;;;;;;4.55;1.10;;;11.70;99.90;;;;;;3539961;40;20037;-70
2021/05/23 05:54:45;;;;;;;4.72;1.13;;;11.70;99.90;;;;;;3535503;40;20054;-70
2021/05/23 05:57:11;;;;;;;3.85;1.10;;;11.60;99.90;;;;;;3536654;40;20031;-68
2021/05/23 05:59:36;;;;;;;1.80;1.02;;;11.60;99.90;;;;;;3538078;40;20420;-67
2021/05/23 06:02:02;;;;;;;4.15;1.00;;;11.50;99.90;;;;;;3538900;40;20117;-68
2021/05/23 06:04:28;;;;;;;3.72;1.13;;;11.50;99.90;;;;;;3539782;40;20046;-68
2021/05/23 06:06:54;;;;;;;4.18;1.35;;;11.40;99.90;;;;;;3538264;40;20713;-68
2021/05/23 06:09:19;;;;;;;4.93;1.20;;;11.30;99.90;;;;;;3535818;40;20057;-68
2021/05/23 06:11:45;;;;;;;1.65;1.08;;;11.30;99.90;;;;;;3534476;40;20039;-67
2021/05/23 06:14:11;;;;;;;2.35;1.05;;;11.30;99.90;;;;;;3537492;40;20049;-67
2021/05/23 06:16:37;;;;;;;3.67;1.08;;;11.30;99.90;;;;;;3534776;40;20046;-66
2021/05/23 06:19:03;;;;;;;1.83;0.90;;;11.30;99.90;;;;;;3532984;40;20050;-68
2021/05/23 06:21:29;;;;;;;1.48;1.00;;;11.20;99.90;;;;;;3535164;40;20038;-67
2021/05/23 06:23:54;;;;;;;2.88;1.02;;;11.20;99.90;;;;;;3534299;40;20042;-67
2021/05/23 06:26:23;;;;;;;3.72;1.20;;;11.30;99.90;;;;;;3532339;40;20057;-68
2021/05/23 06:28:49;;;;;;;2.55;1.10;;;11.30;99.90;;;;;;3532218;40;20047;-67
2021/05/23 06:31:15;;;;;;;4.70;1.17;;;11.30;99.90;;;;;;3531848;40;20117;-67
2021/05/23 06:33:40;;;;;;;2.63;1.20;;;11.30;99.90;;;;;;3537801;40;20035;-68
2021/05/23 06:36:06;;;;;;;2.58;1.10;;;11.30;99.90;;;;;;3535632;40;20042;-67
2021/05/23 06:38:32;;;;;;;1.17;0.80;;;11.50;99.90;;;;;;3537676;40;20038;-67
2021/05/23 06:40:58;;;;;;;0.80;0.80;;;11.70;99.90;;;;;;3537206;40;20038;-67
2021/05/23 06:43:23;;;;;;;6.00;1.17;;;11.90;99.90;;;;;;3535745;40;20034;-68
2021/05/23 06:45:49;;;;;;;1.10;0.90;;;12.20;99.90;;;;;;3537401;40;20055;-68
2021/05/23 06:48:15;;;;;;;3.47;1.30;;;12.50;99.90;;;;;;3535940;40;20038;-68
2021/05/23 06:50:41;;;;;;;1.73;0.65;;;12.70;99.90;;;;;;3534100;40;20321;-67
2021/05/23 06:53:08;;;;;;;1.77;1.05;;;13.00;99.90;;;;;;3534633;40;20031;-68
2021/05/23 06:55:33;;;;;;;3.17;0.70;;;13.20;99.90;;;;;;3538006;40;20045;-68
2021/05/23 06:57:59;;;;;;;2.45;1.02;;;13.10;99.90;;;;;;3536957;40;20026;-67
2021/05/23 07:00:25;;;;;;;6.88;1.23;;;13.20;99.90;;;;;;3535187;40;20467;-68
2021/05/23 07:02:50;;;;;;;6.28;2.97;;;13.10;99.90;;;;;;3538620;40;20597;-67
2021/05/23 07:05:16;;;;;;;3.42;1.55;;;13.00;99.90;;;;;;3537763;40;20472;-68
2021/05/23 07:07:42;;;;;;;5.68;2.05;;;13.10;99.90;;;;;;3538027;40;20125;-68
2021/05/23 07:10:08;;;;;;;18.75;8.70;;;13.10;99.90;;;;;;3536562;40;20042;-67
2021/05/23 07:12:34;;;;;;;5.43;1.80;;;13.30;99.90;;;;;;3536118;40;20818;-68
2021/05/23 07:15:00;;;;;;;5.38;1.42;;;13.30;99.90;;;;;;3537544;40;20050;-68
2021/05/23 07:17:25;;;;;;;3.53;0.98;;;13.30;99.90;;;;;;3536069;40;20047;-68
2021/05/23 07:19:51;;;;;;;3.38;0.82;;;13.50;99.90;;;;;;3540567;40;20070;-68
2021/05/23 07:22:18;;;;;;;2.10;0.90;;;13.80;99.90;;;;;;3534140;40;20135;-68
2021/05/23 07:24:44;;;;;;;4.50;0.85;;;14.10;99.90;;;;;;3537762;40;20557;-68
2021/05/23 07:27:10;;;;;;;6.43;0.90;;;14.40;99.90;;;;;;3534663;40;20031;-68
2021/05/23 07:29:35;;;;;;;5.50;1.10;;;14.70;99.90;;;;;;3539650;40;20420;-68
2021/05/23 07:32:01;;;;;;;1.55;0.75;;;14.90;99.90;;;;;;3540572;40;20058;-67
2021/05/23 07:34:27;;;;;;;1.88;0.90;;;15.30;99.90;;;;;;3537493;40;20560;-67
2021/05/23 07:36:53;;;;;;;8.45;1.00;;;15.40;99.90;;;;;;3538334;40;20037;-68
2021/05/23 07:39:19;;;;;;;2.80;1.00;;;15.30;99.90;;;;;;3538483;40;20046;-68
2021/05/23 07:41:44;;;;;;;4.03;1.00;;;15.30;99.90;;;;;;3532668;40;20824;-68
2021/05/23 07:44:10;;;;;;;3.30;1.10;;;15.20;99.90;;;;;;3531789;40;20047;-68
2021/05/23 07:46:36;;;;;;;3.67;1.40;;;15.30;99.90;;;;;;3532540;40;20058;-67
2021/05/23 07:49:01;;;;;;;5.28;2.03;;;15.40;99.90;;;;;;3534287;40;20065;-68
2021/05/23 07:51:27;;;;;;;3.55;1.48;;;15.40;99.90;;;;;;3538340;40;20034;-67
2021/05/23 07:53:53;;;;;;;2.13;1.17;;;15.30;99.90;;;;;;3535273;40;20069;-68
2021/05/23 07:56:18;;;;;;;2.33;1.10;;;15.60;99.90;;;;;;3534740;40;20889;-70
2021/05/23 07:58:45;;;;;;;3.80;1.10;;;16.50;99.90;;;;;;3536336;40;20537;-69
2021/05/23 08:01:13;;;;;;;8.40;2.45;;;15.70;99.90;;;;;;3538843;40;20043;-68
2021/05/23 08:03:39;;;;;;;3.60;1.00;;;16.00;99.90;;;;;;3535934;40;20483;-68
2021/05/23 08:06:07;;;;;;;2.75;1.50;;;;;;;;;;3532777;40;20073;-68
2021/05/23 08:08:32;;;;;;;7.32;4.18;;;16.20;99.90;;;;;;3533347;40;20027;-68
2021/05/23 08:10:58;;;;;;;3.45;2.00;;;16.20;99.90;;;;;;3532299;40;20042;-67
2021/05/23 08:13:24;;;;;;;4.55;1.30;;;16.30;99.90;;;;;;3535016;40;20031;-73
2021/05/23 08:15:50;;;;;;;3.20;1.30;;;16.50;99.90;;;;;;3534983;40;20046;-73
2021/05/23 08:18:18;;;;;;;2.80;1.25;;;16.60;99.80;;;;;;3537226;40;20045;-73
2021/05/23 08:20:45;;;;;;;8.60;1.50;;;16.40;99.90;;;;;;3534105;40;20054;-74
2021/05/23 08:23:11;;;;;;;3.35;1.40;;;15.90;99.90;;;;;;3539473;40;20494;-73
2021/05/23 08:25:37;;;;;;;5.18;1.58;;;16.00;99.90;;;;;;3538721;40;20051;-73
2021/05/23 08:28:03;;;;;;;2.55;1.38;;;15.90;99.90;;;;;;3537168;40;20073;-74
2021/05/23 08:30:29;;;;;;;1.35;1.20;;;16.00;99.90;;;;;;3534548;40;20145;-74
2021/05/23 08:32:54;;;;;;;2.63;1.30;;;16.20;99.90;;;;;;3532445;40;20039;-73
2021/05/23 08:35:20;;;;;;;8.70;1.52;;;16.50;99.90;;;;;;3537316;40;20356;-73
2021/05/23 08:37:46;;;;;;;1.73;0.85;;;16.80;99.90;;;;;;3538154;40;20046;-73
2021/05/23 08:40:12;;;;;;;2.63;1.10;;;;;;;;;;3537144;40;20074;-73
2021/05/23 08:42:39;;;;;;;4.55;1.08;;;;;;;;;;3537022;40;20071;-73
2021/05/23 08:45:05;;;;;;;6.88;2.28;;;15.70;99.90;;;;;;3533996;40;20038;-73
2021/05/23 08:47:41;;;;;;;5.60;2.42;;;15.20;99.90;;;;;;3531372;40;20080;-72
2021/05/23 08:50:07;;;;;;;2.65;1.13;;;15.00;99.90;;;;;;3536954;40;20046;-71
2021/05/23 08:52:33;;;;;;;1.80;1.02;;;;;;;;;;3536206;40;20435;-73
2021/05/23 08:54:59;;;;;;;2.97;1.08;;;;;;;;;;3537853;40;20781;-73
2021/05/23 08:57:25;;;;;;;3.28;1.08;;;;;;;;;;3537857;40;20070;-73
2021/05/23 08:59:51;;;;;;;2.83;0.80;;;;;;;;;;3537249;40;20038;-74
2021/05/23 09:02:17;;;;;;;1.60;0.77;;;16.40;99.90;;;;;;3538243;40;20066;-74
2021/05/23 09:04:51;;;;;;;2.85;1.00;;;15.80;99.90;;;;;;3536044;40;20435;-73
2021/05/23 09:07:18;;;;;;;1.85;0.77;;;15.50;99.90;;;;;;3538298;40;20034;-74
2021/05/23 09:09:46;;;;;;;0.95;0.80;;;15.60;99.90;;;;;;3540307;40;20046;-73
2021/05/23 09:12:14;;;;;;;1.10;0.70;;;15.30;99.90;;;;;;3542368;40;20112;-74
2021/05/23 09:14:49;;;;;;;2.13;0.80;;;15.70;99.90;;;;;;3540678;40;20046;-74
2021/05/23 09:17:22;;;;;;;1.00;0.70;;;15.90;99.90;;;;;;3537992;40;20305;-68
2021/05/23 09:19:49;;;;;;;1.65;1.13;;;;;;;;;;3536031;40;20065;-66
2021/05/23 09:22:18;;;;;;;3.42;1.90;;;15.80;99.90;;;;;;3534126;40;20039;-67
2021/05/23 09:25:13;;;;;;;0.68;0.60;;;16.90;99.90;;;;;;3534383;40;20046;-67
2021/05/23 09:27:43;;;;;;;0.38;0.38;;;17.10;99.00;;;;;;3535304;40;20039;-68
2021/05/23 09:30:14;;;;;;;9.93;3.40;;;;;;;;;;3535476;40;20054;-68
2021/05/23 09:32:44;;;;;;;6.10;2.95;;;18.80;96.10;;;;;;3536295;40;20051;-68
2021/05/23 09:35:10;;;;;;;24.63;13.70;;;18.60;95.20;;;;;;3533154;40;20147;-67
2021/05/23 09:37:37;;;;;;;15.35;10.80;;;;;;;;;;3538356;40;20154;-67
2021/05/23 09:40:18;;;;;;;5.20;4.70;;;18.30;95.70;;;;;;3534792;40;20042;-67
2021/05/23 09:42:49;;;;;;;3.22;1.90;;;18.40;95.60;;;;;;3535478;40;20081;-67
2021/05/23 09:45:16;;;;;;;1.80;1.08;;;18.40;95.90;;;;;;3532952;40;20042;-68
2021/05/23 09:47:53;;;;;;;2.40;1.90;;;18.20;96.20;;;;;;3532743;40;20058;-68
2021/05/23 09:50:41;;;;;;;7.55;5.03;;;18.20;96.80;;;;;;3533901;40;20711;-68
2021/05/23 09:53:29;;;;;;;2.15;1.40;;;18.60;99.10;;;;;;3537032;40;20401;-68
2021/05/23 09:56:07;;;;;;;1.65;0.90;;;18.30;95.10;;;;;;3536018;40;20035;-67
2021/05/23 09:58:39;;;;;;;3.65;2.72;;;18.40;95.00;;;;;;3538634;40;20037;-68
2021/05/23 10:01:07;;;;;;;1.52;1.08;;;18.80;95.80;;;;;;3539741;40;20407;-68
2021/05/23 10:03:37;;;;;;;49.25;26.63;;;18.90;94.60;;;;;;3532735;40;20035;-68
2021/05/23 10:06:03;;;;;;;13.00;6.20;;;19.00;95.00;;;;;;3536977;40;20037;-68
2021/05/23 10:08:29;;;;;;;30.85;17.10;;;18.90;95.00;;;;;;3534037;40;20039;-68
2021/05/23 10:10:56;;;;;;;6.78;3.95;;;19.00;94.20;;;;;;3535095;40;20062;-68
2021/05/23 10:13:24;;;;;;;2.83;1.23;;;19.60;93.00;;;;;;3531053;40;20395;-68
2021/05/23 10:15:51;;;;;;;2.72;1.70;;;19.40;92.60;;;;;;3530751;40;20477;-68
2021/05/23 10:18:20;;;;;;;23.25;11.93;;;19.30;93.10;;;;;;3533311;40;20035;-67
2021/05/23 10:20:47;;;;;;;7.00;2.60;;;19.40;93.30;;;;;;3535445;40;20072;-68
2021/05/23 10:23:18;;;;;;;3.78;2.53;;;19.40;94.10;;;;;;3533753;40;20042;-68
2021/05/23 10:25:48;;;;;;;2.17;1.35;;;19.50;94.20;;;;;;3536006;40;20346;-68
2021/05/23 10:28:15;;;;;;;0.75;0.75;;;19.30;93.80;;;;;;3539474;40;20135;-68
2021/05/23 10:30:55;;;;;;;3.95;1.85;;;19.10;93.90;;;;;;3534390;40;20039;-68
2021/05/23 10:33:22;;;;;;;23.15;12.45;;;18.90;94.50;;;;;;3536215;40;20058;-68
2021/05/23 10:35:51;;;;;;;13.68;7.57;;;19.00;94.10;;;;;;3537453;40;20042;-69
2021/05/23 10:38:23;;;;;;;28.83;12.80;;;20.00;93.10;;;;;;3538596;40;20050;-67
2021/05/23 10:40:54;;;;;;;1.48;0.90;;;20.10;93.40;;;;;;3540494;40;20094;-67
2021/05/23 10:43:31;;;;;;;15.50;7.38;;;20.80;91.60;;;;;;3538211;40;20058;-68
2021/05/23 10:46:04;;;;;;;8.10;5.10;;;;;;;;;;3537572;40;20046;-69
2021/05/23 10:48:30;;;;;;;5.50;3.50;;;;;;;;;;3535149;40;20164;-67
2021/05/23 10:50:56;;;;;;;4.32;3.40;;;21.90;92.30;;;;;;3540359;40;20033;-68
2021/05/23 10:53:33;;;;;;;2.75;1.60;;;21.60;88.10;;;;;;3535104;40;20046;-68
2021/05/23 10:55:59;;;;;;;6.72;3.95;;;21.10;89.00;;;;;;3537713;40;20102;-68
2021/05/23 10:58:27;;;;;;;2.92;2.08;;;20.50;87.70;;;;;;3537898;40;20062;-68
2021/05/23 11:00:55;;;;;;;1.45;0.65;;;20.70;88.20;;;;;;3537806;40;20058;-68
2021/05/23 11:03:23;;;;;;;1.08;0.98;;;20.00;89.30;;;;;;3539819;40;20046;-68
2021/05/23 11:06:00;;;;;;;1.95;0.90;;;19.70;91.80;;;;;;3538409;40;20848;-68
2021/05/23 11:08:30;;;;;;;2.08;1.23;;;19.90;92.30;;;;;;3537467;40;20143;-67
2021/05/23 11:10:57;;;;;;;1.58;0.98;;;19.60;91.30;;;;;;3538671;40;20074;-69
2021/05/23 11:13:34;;;;;;;4.78;2.47;;;19.40;91.70;;;;;;3539168;40;20051;-68
2021/05/23 11:16:17;;;;;;;2.92;2.40;;;19.60;91.80;;;;;;3541489;40;20550;-68
2021/05/23 11:18:44;;;;;;;1.80;1.30;;;19.90;92.00;;;;;;3540797;40;20038;-68
2021/05/23 11:21:12;;;;;;;0.88;0.85;;;19.80;91.00;;;;;;3536136;40;20035;-68
2021/05/23 11:23:57;;;;;;;3.25;1.92;;;19.80;91.20;;;;;;3539603;40;20038;-68
2021/05/23 11:26:25;;;;;;;2.30;0.75;;;19.50;92.10;;;;;;3535313;40;20043;-68
2021/05/23 11:28:53;;;;;;;1.23;0.85;;;19.50;92.30;;;;;;3531950;40;20050;-68
2021/05/23 11:31:26;;;;;;;3.85;0.70;;;19.90;92.20;;;;;;3534636;40;20046;-68
2021/05/23 11:33:52;;;;;;;0.90;0.70;;;20.60;92.00;;;;;;3538446;40;20046;-68
2021/05/23 11:36:23;;;;;;;0.60;0.60;;;21.30;90.60;;;;;;3536608;40;20038;-68
2021/05/23 11:38:49;;;;;;;0.95;0.40;;;21.50;88.30;;;;;;3537950;40;20507;-67
2021/05/23 11:41:32;;;;;;;0.30;0.30;;;21.80;84.50;;;;;;3540810;40;20049;-68
2021/05/23 11:43:59;;;;;;;0.35;0.35;;;22.20;83.00;;;;;;3540497;40;20560;-68
2021/05/23 11:46:27;;;;;;;0.47;0.40;;;22.80;76.70;;;;;;3534882;40;20086;-68
2021/05/23 11:48:54;;;;;;;0.45;0.40;;;23.20;74.10;;;;;;3537498;40;20403;-68
2021/05/23 11:51:31;;;;;;;2.20;0.60;;;23.00;75.30;;;;;;3538783;40;20035;-69
2021/05/23 11:53:59;;;;;;;4.00;2.08;;;23.00;74.90;;;;;;3541137;40;20031;-68
2021/05/23 11:56:31;;;;;;;1.65;1.25;;;23.10;72.20;;;;;;3540736;40;20031;-68
2021/05/23 11:59:01;;;;;;;1.75;0.50;;;23.80;71.60;;;;;;3539361;40;20503;-68
2021/05/23 12:01:31;;;;;;;1.35;0.60;;;23.80;71.20;;;;;;3535883;40;20077;-68
2021/05/23 12:04:11;;;;;;;0.88;0.60;;;23.50;70.10;;;;;;3537256;40;20051;-67
2021/05/23 12:06:51;;;;;;;1.90;0.70;;;23.70;69.20;;;;;;3532356;40;20400;-67
2021/05/23 12:09:28;;;;;;;0.70;0.50;;;24.70;70.10;;;;;;3532274;40;20042;-67
2021/05/23 12:11:56;;;;;;;0.63;0.40;;;23.00;69.20;;;;;;3534436;40;20606;-68
2021/05/23 12:14:41;;;;;;;0.50;0.50;;;23.30;69.80;;;;;;3537110;40;20038;-68
2021/05/23 12:17:19;;;;;;;0.40;0.40;;;23.10;67.50;;;;;;3538355;40;20042;-68
2021/05/23 12:19:49;;;;;;;0.75;0.50;;;23.30;66.30;;;;;;3539806;40;20046;-68
2021/05/23 12:22:32;;;;;;;0.40;0.40;;;23.30;67.00;;;;;;3535949;40;20031;-68
2021/05/23 12:25:07;;;;;;;0.52;0.50;;;23.70;62.80;;;;;;3538180;40;20065;-67
2021/05/23 12:27:43;;;;;;;0.50;0.50;;;22.90;71.10;;;;;;3536174;40;20125;-68
2021/05/23 12:30:12;;;;;;;0.57;0.55;;;21.30;67.40;;;;;;3539246;40;20823;-68
2021/05/23 12:32:46;;;;;;;0.45;0.35;;;22.10;68.10;;;;;;3532501;40;20054;-68
2021/05/23 12:35:13;;;;;;;0.93;0.60;;;;;;;;;;3540277;40;20066;-68
2021/05/23 12:37:40;;;;;;;0.40;0.40;;;;;;;;;;3537562;40;20050;-67
2021/05/23 12:40:16;;;;;;;1.25;0.43;;;;;;;;;;3535107;40;20030;-68
2021/05/23 12:42:43;;;;;;;1.13;0.68;;;;;;;;;;3539658;40;20027;-68
2021/05/23 12:45:09;;;;;;;1.15;0.70;;;;;;;;;;3539603;40;20037;-68
2021/05/23 12:47:50;;;;;;;4.82;0.50;;;20.90;77.50;;;;;;3532233;40;20144;-68
2021/05/23 12:50:32;;;;;;;1.35;0.70;;;21.00;69.50;;;;;;3534726;40;20061;-68
2021/05/23 12:52:58;;;;;;;0.75;0.75;;;;;;;;;;3533782;40;20045;-68
2021/05/23 12:55:25;;;;;;;1.42;0.75;;;;;;;;;;3533042;40;20044;-68
2021/05/23 12:57:52;;;;;;;0.85;0.70;;;;;;;;;;3538842;40;20047;-68
2021/05/23 13:00:19;;;;;;;1.00;0.80;;;;;;;;;;3537546;40;20651;-68
2021/05/23 13:02:47;;;;;;;0.93;0.85;;;22.50;70.40;;;;;;3536185;40;20038;-68
2021/05/23 13:05:18;;;;;;;3.25;0.75;;;23.00;69.20;;;;;;3535465;40;20045;-68